sensor_id;sensor_type;location;lat;lon;timestamp;P1;durP1;ratioP1;P2;durP2;ratioP2
69783;SDS011;57054;51.978;4.498;2023-04-24T00:00:30;2.33;;;2.13;;
69783;SDS011;57054;51.978;4.498;2023-04-24T00:02:56;3.25;;;2.13;;
69783;SDS011;57054;51.978;4.498;2023-04-24T00:05:22;3.00;;;2.40;;
69783;SDS011;57054;51.978;4.498;2023-04-24T00:07:48;2.95;;;2.40;;
69783;SDS011;57054;51.978;4.498;2023-04-24T00:10:17;6.13;;;2.05;;
69783;SDS011;57054;51.978;4.498;2023-04-24T00:12:42;2.40;;;2.20;;
69783;SDS011;57054;51.978;4.498;2023-04-24T00:15:08;2.65;;;2.10;;
69783;SDS011;57054;51.978;4.498;2023-04-24T00:17:34;2.17;;;2.00;;
69783;SDS011;57054;51.978;4.498;2023-04-24T00:19:59;3.25;;;2.03;;
69783;SDS011;57054;51.978;4.498;2023-04-24T00:22:25;2.85;;;2.38;;
69783;SDS011;57054;51.978;4.498;2023-04-24T00:24:51;3.30;;;2.33;;
69783;SDS011;57054;51.978;4.498;2023-04-24T00:27:16;5.60;;;2.40;;
69783;SDS011;57054;51.978;4.498;2023-04-24T00:29:42;2.42;;;2.22;;
69783;SDS011;57054;51.978;4.498;2023-04-24T00:32:07;4.10;;;3.03;;
69783;SDS011;57054;51.978;4.498;2023-04-24T00:34:32;1.90;;;1.80;;
69783;SDS011;57054;51.978;4.498;2023-04-24T00:36:58;2.38;;;2.17;;
69783;SDS011;57054;51.978;4.498;2023-04-24T00:39:23;2.15;;;1.95;;
69783;SDS011;57054;51.978;4.498;2023-04-24T00:41:49;2.90;;;2.22;;
69783;SDS011;57054;51.978;4.498;2023-04-24T00:44:15;2.33;;;2.13;;
69783;SDS011;57054;51.978;4.498;2023-04-24T00:46:41;2.00;;;1.90;;
69783;SDS011;57054;51.978;4.498;2023-04-24T00:49:07;2.30;;;2.10;;
69783;SDS011;57054;51.978;4.498;2023-04-24T00:51:33;1.67;;;1.58;;
69783;SDS011;57054;51.978;4.498;2023-04-24T00:53:59;3.20;;;1.70;;
69783;SDS011;57054;51.978;4.498;2023-04-24T00:56:26;1.80;;;1.70;;
69783;SDS011;57054;51.978;4.498;2023-04-24T00:58:52;2.10;;;1.83;;
69783;SDS011;57054;51.978;4.498;2023-04-24T01:01:21;2.13;;;1.88;;
69783;SDS011;57054;51.978;4.498;2023-04-24T01:03:47;2.05;;;1.95;;
69783;SDS011;57054;51.978;4.498;2023-04-24T01:06:15;1.85;;;1.75;;
69783;SDS011;57054;51.978;4.498;2023-04-24T01:08:41;3.58;;;1.83;;
69783;SDS011;57054;51.978;4.498;2023-04-24T01:11:07;2.78;;;2.58;;
69783;SDS011;57054;51.978;4.498;2023-04-24T01:13:33;1.98;;;1.88;;
69783;SDS011;57054;51.978;4.498;2023-04-24T01:15:59;3.38;;;3.08;;
69783;SDS011;57054;51.978;4.498;2023-04-24T01:18:25;2.60;;;2.40;;
69783;SDS011;57054;51.978;4.498;2023-04-24T01:20:53;3.30;;;3.00;;
69783;SDS011;57054;51.978;4.498;2023-04-24T01:23:21;2.72;;;2.50;;
69783;SDS011;57054;51.978;4.498;2023-04-24T01:25:48;3.20;;;3.00;;
69783;SDS011;57054;51.978;4.498;2023-04-24T01:28:15;3.22;;;3.03;;
69783;SDS011;57054;51.978;4.498;2023-04-24T01:30:41;2.70;;;2.50;;
69783;SDS011;57054;51.978;4.498;2023-04-24T01:33:06;2.60;;;2.40;;
69783;SDS011;57054;51.978;4.498;2023-04-24T01:35:32;1.80;;;1.70;;
69783;SDS011;57054;51.978;4.498;2023-04-24T01:37:57;1.50;;;1.40;;
69783;SDS011;57054;51.978;4.498;2023-04-24T01:40:23;0.80;;;0.68;;
69783;SDS011;57054;51.978;4.498;2023-04-24T01:42:48;0.60;;;0.60;;
69783;SDS011;57054;51.978;4.498;2023-04-24T01:45:14;1.42;;;0.50;;
69783;SDS011;57054;51.978;4.498;2023-04-24T01:47:39;0.40;;;0.40;;
69783;SDS011;57054;51.978;4.498;2023-04-24T01:50:05;0.30;;;0.30;;
69783;SDS011;57054;51.978;4.498;2023-04-24T01:52:31;0.55;;;0.40;;
69783;SDS011;57054;51.978;4.498;2023-04-24T01:55:01;1.60;;;0.40;;
69783;SDS011;57054;51.978;4.498;2023-04-24T01:57:30;0.47;;;0.30;;
69783;SDS011;57054;51.978;4.498;2023-04-24T01:59:56;1.15;;;0.38;;
69783;SDS011;57054;51.978;4.498;2023-04-24T02:02:24;0.30;;;0.30;;
69783;SDS011;57054;51.978;4.498;2023-04-24T02:04:52;2.58;;;0.40;;
69783;SDS011;57054;51.978;4.498;2023-04-24T02:07:19;0.52;;;0.40;;
69783;SDS011;57054;51.978;4.498;2023-04-24T02:09:44;0.30;;;0.30;;
69783;SDS011;57054;51.978;4.498;2023-04-24T02:12:09;0.40;;;0.40;;
69783;SDS011;57054;51.978;4.498;2023-04-24T02:14:35;0.40;;;0.40;;
69783;SDS011;57054;51.978;4.498;2023-04-24T02:17:00;0.93;;;0.40;;
69783;SDS011;57054;51.978;4.498;2023-04-24T02:19:26;0.63;;;0.52;;
69783;SDS011;57054;51.978;4.498;2023-04-24T02:21:51;0.98;;;0.50;;
69783;SDS011;57054;51.978;4.498;2023-04-24T02:24:17;0.52;;;0.52;;
69783;SDS011;57054;51.978;4.498;2023-04-24T02:26:42;0.50;;;0.50;;
69783;SDS011;57054;51.978;4.498;2023-04-24T02:29:08;0.88;;;0.60;;
69783;SDS011;57054;51.978;4.498;2023-04-24T02:31:33;3.90;;;0.50;;
69783;SDS011;57054;51.978;4.498;2023-04-24T02:33:59;0.95;;;0.90;;
69783;SDS011;57054;51.978;4.498;2023-04-24T02:36:24;1.70;;;1.17;;
69783;SDS011;57054;51.978;4.498;2023-04-24T02:38:50;1.25;;;1.15;;
69783;SDS011;57054;51.978;4.498;2023-04-24T02:41:15;0.98;;;0.90;;
69783;SDS011;57054;51.978;4.498;2023-04-24T02:43:40;1.60;;;1.10;;
69783;SDS011;57054;51.978;4.498;2023-04-24T02:46:06;2.67;;;1.40;;
69783;SDS011;57054;51.978;4.498;2023-04-24T02:48:31;0.90;;;0.90;;
69783;SDS011;57054;51.978;4.498;2023-04-24T02:50:56;2.28;;;0.80;;
69783;SDS011;57054;51.978;4.498;2023-04-24T02:53:22;1.20;;;0.60;;
69783;SDS011;57054;51.978;4.498;2023-04-24T02:55:48;0.88;;;0.60;;
69783;SDS011;57054;51.978;4.498;2023-04-24T02:58:13;0.60;;;0.60;;
69783;SDS011;57054;51.978;4.498;2023-04-24T03:00:39;0.60;;;0.60;;
69783;SDS011;57054;51.978;4.498;2023-04-24T03:03:05;0.75;;;0.57;;
69783;SDS011;57054;51.978;4.498;2023-04-24T03:05:30;1.00;;;0.40;;
69783;SDS011;57054;51.978;4.498;2023-04-24T03:07:56;0.40;;;0.40;;
69783;SDS011;57054;51.978;4.498;2023-04-24T03:10:21;0.30;;;0.30;;
69783;SDS011;57054;51.978;4.498;2023-04-24T03:12:50;1.15;;;0.40;;
69783;SDS011;57054;51.978;4.498;2023-04-24T03:15:15;0.63;;;0.35;;
69783;SDS011;57054;51.978;4.498;2023-04-24T03:17:41;0.30;;;0.30;;
69783;SDS011;57054;51.978;4.498;2023-04-24T03:20:06;0.90;;;0.40;;
69783;SDS011;57054;51.978;4.498;2023-04-24T03:22:33;0.25;;;0.25;;
69783;SDS011;57054;51.978;4.498;2023-04-24T03:24:59;0.85;;;0.35;;
69783;SDS011;57054;51.978;4.498;2023-04-24T03:27:25;1.95;;;0.45;;
69783;SDS011;57054;51.978;4.498;2023-04-24T03:29:50;1.75;;;0.57;;
69783;SDS011;57054;51.978;4.498;2023-04-24T03:32:22;0.50;;;0.45;;
69783;SDS011;57054;51.978;4.498;2023-04-24T03:34:50;0.82;;;0.45;;
69783;SDS011;57054;51.978;4.498;2023-04-24T03:37:16;0.68;;;0.50;;
69783;SDS011;57054;51.978;4.498;2023-04-24T03:39:42;0.63;;;0.50;;
69783;SDS011;57054;51.978;4.498;2023-04-24T03:42:08;0.40;;;0.40;;
69783;SDS011;57054;51.978;4.498;2023-04-24T03:44:33;0.70;;;0.50;;
69783;SDS011;57054;51.978;4.498;2023-04-24T03:46:59;1.08;;;0.65;;
69783;SDS011;57054;51.978;4.498;2023-04-24T03:49:25;0.85;;;0.55;;
69783;SDS011;57054;51.978;4.498;2023-04-24T03:51:50;0.82;;;0.38;;
69783;SDS011;57054;51.978;4.498;2023-04-24T03:54:17;0.30;;;0.30;;
69783;SDS011;57054;51.978;4.498;2023-04-24T03:56:42;1.35;;;0.50;;
69783;SDS011;57054;51.978;4.498;2023-04-24T03:59:08;0.32;;;0.32;;
69783;SDS011;57054;51.978;4.498;2023-04-24T04:01:33;0.43;;;0.40;;
69783;SDS011;57054;51.978;4.498;2023-04-24T04:04:01;0.40;;;0.40;;
69783;SDS011;57054;51.978;4.498;2023-04-24T04:06:27;0.68;;;0.50;;
69783;SDS011;57054;51.978;4.498;2023-04-24T04:08:53;0.30;;;0.30;;
69783;SDS011;57054;51.978;4.498;2023-04-24T04:11:18;0.30;;;0.30;;
69783;SDS011;57054;51.978;4.498;2023-04-24T04:13:44;0.40;;;0.40;;
69783;SDS011;57054;51.978;4.498;2023-04-24T04:16:12;0.93;;;0.32;;
69783;SDS011;57054;51.978;4.498;2023-04-24T04:18:38;0.63;;;0.47;;
69783;SDS011;57054;51.978;4.498;2023-04-24T04:21:03;1.63;;;0.52;;
69783;SDS011;57054;51.978;4.498;2023-04-24T04:23:28;1.33;;;0.68;;
69783;SDS011;57054;51.978;4.498;2023-04-24T04:25:54;0.70;;;0.57;;
69783;SDS011;57054;51.978;4.498;2023-04-24T04:28:20;1.15;;;0.50;;
69783;SDS011;57054;51.978;4.498;2023-04-24T04:30:46;3.00;;;0.70;;
69783;SDS011;57054;51.978;4.498;2023-04-24T04:33:12;1.55;;;0.70;;
69783;SDS011;57054;51.978;4.498;2023-04-24T04:35:37;3.40;;;1.17;;
69783;SDS011;57054;51.978;4.498;2023-04-24T04:38:03;2.33;;;1.42;;
69783;SDS011;57054;51.978;4.498;2023-04-24T04:40:29;2.42;;;1.67;;
69783;SDS011;57054;51.978;4.498;2023-04-24T04:42:55;7.55;;;2.05;;
69783;SDS011;57054;51.978;4.498;2023-04-24T04:45:20;2.47;;;2.10;;
69783;SDS011;57054;51.978;4.498;2023-04-24T04:47:46;4.20;;;1.80;;
69783;SDS011;57054;51.978;4.498;2023-04-24T04:50:12;6.57;;;2.08;;
69783;SDS011;57054;51.978;4.498;2023-04-24T04:52:38;7.65;;;2.20;;
69783;SDS011;57054;51.978;4.498;2023-04-24T04:55:04;8.48;;;2.15;;
69783;SDS011;57054;51.978;4.498;2023-04-24T04:57:30;6.93;;;2.40;;
69783;SDS011;57054;51.978;4.498;2023-04-24T04:59:55;6.05;;;2.97;;
69783;SDS011;57054;51.978;4.498;2023-04-24T05:02:20;5.95;;;3.92;;
69783;SDS011;57054;51.978;4.498;2023-04-24T05:04:46;13.95;;;5.60;;
69783;SDS011;57054;51.978;4.498;2023-04-24T05:07:11;12.88;;;6.40;;
69783;SDS011;57054;51.978;4.498;2023-04-24T05:09:36;14.07;;;7.18;;
69783;SDS011;57054;51.978;4.498;2023-04-24T05:12:02;15.65;;;6.82;;
69783;SDS011;57054;51.978;4.498;2023-04-24T05:14:28;12.50;;;7.47;;
69783;SDS011;57054;51.978;4.498;2023-04-24T05:16:53;17.20;;;8.15;;
69783;SDS011;57054;51.978;4.498;2023-04-24T05:19:19;13.65;;;7.65;;
69783;SDS011;57054;51.978;4.498;2023-04-24T05:21:44;8.85;;;6.13;;
69783;SDS011;57054;51.978;4.498;2023-04-24T05:24:10;14.13;;;6.82;;
69783;SDS011;57054;51.978;4.498;2023-04-24T05:26:35;8.75;;;7.00;;
69783;SDS011;57054;51.978;4.498;2023-04-24T05:29:01;10.48;;;6.18;;
69783;SDS011;57054;51.978;4.498;2023-04-24T05:31:27;17.42;;;7.25;;
69783;SDS011;57054;51.978;4.498;2023-04-24T05:33:53;11.60;;;7.20;;
69783;SDS011;57054;51.978;4.498;2023-04-24T05:36:18;16.35;;;7.68;;
69783;SDS011;57054;51.978;4.498;2023-04-24T05:38:43;14.18;;;7.57;;
69783;SDS011;57054;51.978;4.498;2023-04-24T05:41:09;19.35;;;8.38;;
69783;SDS011;57054;51.978;4.498;2023-04-24T05:43:34;18.10;;;7.57;;
69783;SDS011;57054;51.978;4.498;2023-04-24T05:46:00;16.55;;;7.38;;
69783;SDS011;57054;51.978;4.498;2023-04-24T05:48:25;19.00;;;7.75;;
69783;SDS011;57054;51.978;4.498;2023-04-24T05:50:51;11.50;;;7.38;;
69783;SDS011;57054;51.978;4.498;2023-04-24T05:53:17;17.77;;;8.40;;
69783;SDS011;57054;51.978;4.498;2023-04-24T05:55:43;10.30;;;7.10;;
69783;SDS011;57054;51.978;4.498;2023-04-24T05:58:08;22.42;;;8.20;;
69783;SDS011;57054;51.978;4.498;2023-04-24T06:00:34;17.55;;;6.93;;
69783;SDS011;57054;51.978;4.498;2023-04-24T06:03:00;15.55;;;6.60;;
69783;SDS011;57054;51.978;4.498;2023-04-24T06:05:25;13.38;;;6.68;;
69783;SDS011;57054;51.978;4.498;2023-04-24T06:07:51;13.27;;;6.85;;
69783;SDS011;57054;51.978;4.498;2023-04-24T06:10:17;17.35;;;5.97;;
69783;SDS011;57054;51.978;4.498;2023-04-24T06:12:42;14.88;;;5.88;;
69783;SDS011;57054;51.978;4.498;2023-04-24T06:15:08;19.02;;;6.00;;
69783;SDS011;57054;51.978;4.498;2023-04-24T06:17:34;16.33;;;5.40;;
69783;SDS011;57054;51.978;4.498;2023-04-24T06:19:59;22.40;;;5.97;;
69783;SDS011;57054;51.978;4.498;2023-04-24T06:22:25;17.77;;;5.35;;
69783;SDS011;57054;51.978;4.498;2023-04-24T06:24:50;14.43;;;4.72;;
69783;SDS011;57054;51.978;4.498;2023-04-24T06:27:15;18.33;;;4.53;;
69783;SDS011;57054;51.978;4.498;2023-04-24T06:29:41;17.23;;;4.53;;
69783;SDS011;57054;51.978;4.498;2023-04-24T06:32:06;16.13;;;4.32;;
69783;SDS011;57054;51.978;4.498;2023-04-24T06:34:32;14.65;;;4.43;;
69783;SDS011;57054;51.978;4.498;2023-04-24T06:36:59;13.23;;;4.35;;
69783;SDS011;57054;51.978;4.498;2023-04-24T06:39:25;13.02;;;4.03;;
69783;SDS011;57054;51.978;4.498;2023-04-24T06:41:50;16.55;;;4.22;;
69783;SDS011;57054;51.978;4.498;2023-04-24T06:44:15;17.38;;;4.10;;
69783;SDS011;57054;51.978;4.498;2023-04-24T06:46:41;11.38;;;3.58;;
69783;SDS011;57054;51.978;4.498;2023-04-24T06:49:07;16.88;;;3.80;;
69783;SDS011;57054;51.978;4.498;2023-04-24T06:51:32;19.77;;;4.15;;
69783;SDS011;57054;51.978;4.498;2023-04-24T06:53:58;20.25;;;4.55;;
69783;SDS011;57054;51.978;4.498;2023-04-24T06:56:24;17.85;;;4.10;;
69783;SDS011;57054;51.978;4.498;2023-04-24T06:58:50;20.98;;;4.03;;
69783;SDS011;57054;51.978;4.498;2023-04-24T07:01:16;19.52;;;3.40;;
69783;SDS011;57054;51.978;4.498;2023-04-24T07:03:42;15.55;;;3.17;;
69783;SDS011;57054;51.978;4.498;2023-04-24T07:06:07;15.75;;;4.03;;
69783;SDS011;57054;51.978;4.498;2023-04-24T07:08:32;21.40;;;3.42;;
69783;SDS011;57054;51.978;4.498;2023-04-24T07:10:58;16.60;;;5.15;;
69783;SDS011;57054;51.978;4.498;2023-04-24T07:13:24;15.70;;;3.53;;
69783;SDS011;57054;51.978;4.498;2023-04-24T07:15:50;11.93;;;3.00;;
69783;SDS011;57054;51.978;4.498;2023-04-24T07:18:17;14.52;;;2.80;;
69783;SDS011;57054;51.978;4.498;2023-04-24T07:20:43;22.40;;;3.15;;
69783;SDS011;57054;51.978;4.498;2023-04-24T07:23:09;10.32;;;2.95;;
69783;SDS011;57054;51.978;4.498;2023-04-24T07:25:34;15.02;;;3.10;;
69783;SDS011;57054;51.978;4.498;2023-04-24T07:28:00;11.60;;;3.17;;
69783;SDS011;57054;51.978;4.498;2023-04-24T07:30:25;6.05;;;2.67;;
69783;SDS011;57054;51.978;4.498;2023-04-24T07:32:51;16.20;;;2.60;;
69783;SDS011;57054;51.978;4.498;2023-04-24T07:35:16;11.77;;;2.70;;
69783;SDS011;57054;51.978;4.498;2023-04-24T07:37:42;11.70;;;3.00;;
69783;SDS011;57054;51.978;4.498;2023-04-24T07:40:11;13.77;;;2.80;;
69783;SDS011;57054;51.978;4.498;2023-04-24T07:42:37;10.80;;;2.75;;
69783;SDS011;57054;51.978;4.498;2023-04-24T07:45:03;12.45;;;2.30;;
69783;SDS011;57054;51.978;4.498;2023-04-24T07:47:29;15.13;;;2.65;;
69783;SDS011;57054;51.978;4.498;2023-04-24T07:49:54;17.35;;;2.75;;
69783;SDS011;57054;51.978;4.498;2023-04-24T07:52:20;19.17;;;2.60;;
69783;SDS011;57054;51.978;4.498;2023-04-24T07:54:45;12.40;;;2.40;;
69783;SDS011;57054;51.978;4.498;2023-04-24T07:57:11;12.02;;;2.10;;
69783;SDS011;57054;51.978;4.498;2023-04-24T07:59:36;8.23;;;2.20;;
69783;SDS011;57054;51.978;4.498;2023-04-24T08:02:01;10.75;;;2.33;;
69783;SDS011;57054;51.978;4.498;2023-04-24T08:04:27;12.68;;;2.22;;
69783;SDS011;57054;51.978;4.498;2023-04-24T08:06:52;11.15;;;2.25;;
69783;SDS011;57054;51.978;4.498;2023-04-24T08:09:18;8.82;;;2.10;;
69783;SDS011;57054;51.978;4.498;2023-04-24T08:11:43;5.90;;;2.42;;
69783;SDS011;57054;51.978;4.498;2023-04-24T08:14:09;11.30;;;2.35;;
69783;SDS011;57054;51.978;4.498;2023-04-24T08:16:34;11.73;;;2.05;;
69783;SDS011;57054;51.978;4.498;2023-04-24T08:19:00;11.43;;;2.60;;
69783;SDS011;57054;51.978;4.498;2023-04-24T08:21:25;11.20;;;3.20;;
69783;SDS011;57054;51.978;4.498;2023-04-24T08:23:52;11.32;;;2.00;;
69783;SDS011;57054;51.978;4.498;2023-04-24T08:26:17;7.22;;;2.00;;
69783;SDS011;57054;51.978;4.498;2023-04-24T08:28:43;10.07;;;2.67;;
69783;SDS011;57054;51.978;4.498;2023-04-24T08:31:08;14.27;;;2.63;;
69783;SDS011;57054;51.978;4.498;2023-04-24T08:33:34;5.97;;;1.70;;
69783;SDS011;57054;51.978;4.498;2023-04-24T08:36:00;6.20;;;1.95;;
69783;SDS011;57054;51.978;4.498;2023-04-24T08:38:27;6.40;;;1.92;;
69783;SDS011;57054;51.978;4.498;2023-04-24T08:40:52;7.70;;;1.60;;
69783;SDS011;57054;51.978;4.498;2023-04-24T08:43:18;6.03;;;1.88;;
69783;SDS011;57054;51.978;4.498;2023-04-24T08:45:47;9.68;;;2.25;;
69783;SDS011;57054;51.978;4.498;2023-04-24T08:48:12;7.88;;;1.52;;
69783;SDS011;57054;51.978;4.498;2023-04-24T08:50:38;4.72;;;1.40;;
69783;SDS011;57054;51.978;4.498;2023-04-24T08:53:07;4.97;;;1.67;;
69783;SDS011;57054;51.978;4.498;2023-04-24T08:55:33;4.57;;;1.45;;
69783;SDS011;57054;51.978;4.498;2023-04-24T08:57:59;3.38;;;0.95;;
69783;SDS011;57054;51.978;4.498;2023-04-24T09:00:26;4.78;;;1.10;;
69783;SDS011;57054;51.978;4.498;2023-04-24T09:02:53;3.42;;;1.20;;
69783;SDS011;57054;51.978;4.498;2023-04-24T09:05:20;5.65;;;1.33;;
69783;SDS011;57054;51.978;4.498;2023-04-24T09:07:49;8.10;;;1.15;;
69783;SDS011;57054;51.978;4.498;2023-04-24T09:10:21;8.40;;;1.40;;
69783;SDS011;57054;51.978;4.498;2023-04-24T09:12:50;5.50;;;1.48;;
69783;SDS011;57054;51.978;4.498;2023-04-24T09:15:16;5.32;;;1.13;;
69783;SDS011;57054;51.978;4.498;2023-04-24T09:17:43;4.55;;;1.23;;
69783;SDS011;57054;51.978;4.498;2023-04-24T09:20:09;5.70;;;1.17;;
69783;SDS011;57054;51.978;4.498;2023-04-24T09:22:34;7.43;;;0.77;;
69783;SDS011;57054;51.978;4.498;2023-04-24T09:25:03;8.65;;;1.35;;
69783;SDS011;57054;51.978;4.498;2023-04-24T09:27:31;9.60;;;0.93;;
69783;SDS011;57054;51.978;4.498;2023-04-24T09:29:57;2.70;;;0.77;;
69783;SDS011;57054;51.978;4.498;2023-04-24T09:32:22;3.30;;;1.05;;
69783;SDS011;57054;51.978;4.498;2023-04-24T09:35:04;4.10;;;1.25;;
69783;SDS011;57054;51.978;4.498;2023-04-24T09:37:37;4.68;;;0.98;;
69783;SDS011;57054;51.978;4.498;2023-04-24T09:40:22;5.38;;;0.60;;
69783;SDS011;57054;51.978;4.498;2023-04-24T09:42:57;7.55;;;1.30;;
69783;SDS011;57054;51.978;4.498;2023-04-24T09:45:35;3.22;;;1.05;;
69783;SDS011;57054;51.978;4.498;2023-04-24T09:48:10;8.32;;;1.00;;
69783;SDS011;57054;51.978;4.498;2023-04-24T09:50:36;4.05;;;0.80;;
69783;SDS011;57054;51.978;4.498;2023-04-24T09:53:02;5.20;;;1.10;;
69783;SDS011;57054;51.978;4.498;2023-04-24T09:55:28;2.75;;;0.68;;
69783;SDS011;57054;51.978;4.498;2023-04-24T09:57:55;1.25;;;0.50;;
69783;SDS011;57054;51.978;4.498;2023-04-24T10:00:23;4.40;;;1.00;;
69783;SDS011;57054;51.978;4.498;2023-04-24T10:02:54;4.70;;;0.90;;
69783;SDS011;57054;51.978;4.498;2023-04-24T10:05:24;3.80;;;0.60;;
69783;SDS011;57054;51.978;4.498;2023-04-24T10:07:54;7.17;;;1.70;;
69783;SDS011;57054;51.978;4.498;2023-04-24T10:10:21;5.72;;;0.95;;
69783;SDS011;57054;51.978;4.498;2023-04-24T10:12:47;3.63;;;0.68;;
69783;SDS011;57054;51.978;4.498;2023-04-24T10:15:14;7.32;;;1.95;;
69783;SDS011;57054;51.978;4.498;2023-04-24T10:17:41;4.90;;;1.27;;
69783;SDS011;57054;51.978;4.498;2023-04-24T10:20:09;7.13;;;0.80;;
69783;SDS011;57054;51.978;4.498;2023-04-24T10:22:35;3.22;;;1.00;;
69783;SDS011;57054;51.978;4.498;2023-04-24T10:25:03;7.30;;;1.20;;
69783;SDS011;57054;51.978;4.498;2023-04-24T10:27:29;4.53;;;1.08;;
69783;SDS011;57054;51.978;4.498;2023-04-24T10:29:57;4.47;;;0.98;;
69783;SDS011;57054;51.978;4.498;2023-04-24T10:32:23;4.18;;;0.95;;
69783;SDS011;57054;51.978;4.498;2023-04-24T10:34:49;8.30;;;1.15;;
69783;SDS011;57054;51.978;4.498;2023-04-24T10:37:14;6.75;;;1.00;;
69783;SDS011;57054;51.978;4.498;2023-04-24T10:39:40;8.07;;;1.17;;
69783;SDS011;57054;51.978;4.498;2023-04-24T10:42:15;4.05;;;0.80;;
69783;SDS011;57054;51.978;4.498;2023-04-24T10:44:40;3.88;;;1.17;;
69783;SDS011;57054;51.978;4.498;2023-04-24T10:47:07;4.65;;;0.93;;
69783;SDS011;57054;51.978;4.498;2023-04-24T10:49:38;4.00;;;0.80;;
69783;SDS011;57054;51.978;4.498;2023-04-24T10:52:05;4.80;;;0.90;;
69783;SDS011;57054;51.978;4.498;2023-04-24T10:54:41;3.72;;;0.93;;
69783;SDS011;57054;51.978;4.498;2023-04-24T10:59:44;7.05;;;1.25;;
69783;SDS011;57054;51.978;4.498;2023-04-24T11:02:09;8.30;;;1.42;;
69783;SDS011;57054;51.978;4.498;2023-04-24T11:04:35;7.65;;;1.20;;
69783;SDS011;57054;51.978;4.498;2023-04-24T11:07:02;3.35;;;0.70;;
69783;SDS011;57054;51.978;4.498;2023-04-24T11:09:30;3.03;;;0.70;;
69783;SDS011;57054;51.978;4.498;2023-04-24T11:12:06;2.17;;;0.63;;
69783;SDS011;57054;51.978;4.498;2023-04-24T11:20:06;2.75;;;0.50;;
69783;SDS011;57054;51.978;4.498;2023-04-24T11:22:34;3.03;;;0.68;;
69783;SDS011;57054;51.978;4.498;2023-04-24T11:25:01;5.57;;;0.75;;
69783;SDS011;57054;51.978;4.498;2023-04-24T11:27:29;2.42;;;1.10;;
69783;SDS011;57054;51.978;4.498;2023-04-24T11:32:29;3.22;;;1.33;;
69783;SDS011;57054;51.978;4.498;2023-04-24T11:34:56;4.50;;;0.93;;
69783;SDS011;57054;51.978;4.498;2023-04-24T11:37:27;1.17;;;0.73;;
69783;SDS011;57054;51.978;4.498;2023-04-24T11:39:55;5.07;;;0.73;;
69783;SDS011;57054;51.978;4.498;2023-04-24T11:42:22;6.32;;;0.80;;
69783;SDS011;57054;51.978;4.498;2023-04-24T11:44:49;2.78;;;0.82;;
69783;SDS011;57054;51.978;4.498;2023-04-24T11:47:16;3.70;;;0.90;;
69783;SDS011;57054;51.978;4.498;2023-04-24T11:49:42;5.45;;;0.98;;
69783;SDS011;57054;51.978;4.498;2023-04-24T11:52:07;4.45;;;1.10;;
69783;SDS011;57054;51.978;4.498;2023-04-24T11:54:33;5.57;;;0.82;;
69783;SDS011;57054;51.978;4.498;2023-04-24T11:56:58;6.30;;;1.30;;
69783;SDS011;57054;51.978;4.498;2023-04-24T11:59:24;3.50;;;1.30;;
69783;SDS011;57054;51.978;4.498;2023-04-24T12:01:50;8.65;;;1.60;;
69783;SDS011;57054;51.978;4.498;2023-04-24T12:04:16;5.60;;;1.60;;
69783;SDS011;57054;51.978;4.498;2023-04-24T12:09:27;7.70;;;1.70;;
69783;SDS011;57054;51.978;4.498;2023-04-24T12:11:56;10.20;;;1.77;;
69783;SDS011;57054;51.978;4.498;2023-04-24T12:14:24;5.38;;;1.30;;
69783;SDS011;57054;51.978;4.498;2023-04-24T12:16:50;4.22;;;1.30;;
69783;SDS011;57054;51.978;4.498;2023-04-24T12:19:20;5.07;;;1.70;;
69783;SDS011;57054;51.978;4.498;2023-04-24T12:21:58;10.57;;;1.63;;
69783;SDS011;57054;51.978;4.498;2023-04-24T12:24:28;11.45;;;1.70;;
69783;SDS011;57054;51.978;4.498;2023-04-24T12:26:54;7.10;;;1.60;;
69783;SDS011;57054;51.978;4.498;2023-04-24T12:29:20;7.43;;;1.67;;
69783;SDS011;57054;51.978;4.498;2023-04-24T12:31:46;3.28;;;1.38;;
69783;SDS011;57054;51.978;4.498;2023-04-24T12:34:18;10.57;;;2.83;;
69783;SDS011;57054;51.978;4.498;2023-04-24T12:36:48;10.43;;;2.20;;
69783;SDS011;57054;51.978;4.498;2023-04-24T12:39:22;11.27;;;1.90;;
69783;SDS011;57054;51.978;4.498;2023-04-24T12:41:55;11.32;;;1.77;;
69783;SDS011;57054;51.978;4.498;2023-04-24T12:44:31;8.27;;;1.80;;
69783;SDS011;57054;51.978;4.498;2023-04-24T12:47:00;12.52;;;2.50;;
69783;SDS011;57054;51.978;4.498;2023-04-24T12:49:26;7.22;;;2.20;;
69783;SDS011;57054;51.978;4.498;2023-04-24T12:51:53;7.40;;;1.75;;
69783;SDS011;57054;51.978;4.498;2023-04-24T12:54:19;8.07;;;1.95;;
69783;SDS011;57054;51.978;4.498;2023-04-24T12:56:44;6.53;;;2.05;;
69783;SDS011;57054;51.978;4.498;2023-04-24T12:59:09;11.05;;;2.63;;
69783;SDS011;57054;51.978;4.498;2023-04-24T13:01:35;11.45;;;2.33;;
69783;SDS011;57054;51.978;4.498;2023-04-24T13:04:00;15.68;;;3.03;;
69783;SDS011;57054;51.978;4.498;2023-04-24T13:06:26;12.15;;;2.85;;
69783;SDS011;57054;51.978;4.498;2023-04-24T13:08:51;9.95;;;2.22;;
69783;SDS011;57054;51.978;4.498;2023-04-24T13:11:17;7.05;;;2.08;;
69783;SDS011;57054;51.978;4.498;2023-04-24T13:13:43;12.57;;;2.88;;
69783;SDS011;57054;51.978;4.498;2023-04-24T13:16:08;11.75;;;2.13;;
69783;SDS011;57054;51.978;4.498;2023-04-24T13:18:33;6.10;;;2.30;;
69783;SDS011;57054;51.978;4.498;2023-04-24T13:20:59;9.32;;;2.70;;
69783;SDS011;57054;51.978;4.498;2023-04-24T13:23:24;6.28;;;1.83;;
69783;SDS011;57054;51.978;4.498;2023-04-24T13:25:50;6.47;;;1.85;;
69783;SDS011;57054;51.978;4.498;2023-04-24T13:28:15;6.78;;;1.70;;
69783;SDS011;57054;51.978;4.498;2023-04-24T13:30:40;5.07;;;1.95;;
69783;SDS011;57054;51.978;4.498;2023-04-24T13:33:06;4.88;;;1.92;;
69783;SDS011;57054;51.978;4.498;2023-04-24T13:35:31;9.77;;;2.95;;
69783;SDS011;57054;51.978;4.498;2023-04-24T13:37:57;14.38;;;2.90;;
69783;SDS011;57054;51.978;4.498;2023-04-24T13:40:23;10.82;;;2.63;;
69783;SDS011;57054;51.978;4.498;2023-04-24T13:42:48;6.38;;;1.73;;
69783;SDS011;57054;51.978;4.498;2023-04-24T13:45:14;6.35;;;2.13;;
69783;SDS011;57054;51.978;4.498;2023-04-24T13:47:39;8.32;;;2.20;;
69783;SDS011;57054;51.978;4.498;2023-04-24T13:50:06;8.77;;;2.72;;
69783;SDS011;57054;51.978;4.498;2023-04-24T13:52:33;5.97;;;2.50;;
69783;SDS011;57054;51.978;4.498;2023-04-24T13:54:58;5.95;;;2.10;;
69783;SDS011;57054;51.978;4.498;2023-04-24T13:57:24;6.65;;;2.30;;
69783;SDS011;57054;51.978;4.498;2023-04-24T13:59:50;7.53;;;2.42;;
69783;SDS011;57054;51.978;4.498;2023-04-24T14:02:15;8.63;;;2.58;;
69783;SDS011;57054;51.978;4.498;2023-04-24T14:04:40;7.03;;;2.45;;
69783;SDS011;57054;51.978;4.498;2023-04-24T14:07:06;9.85;;;2.92;;
69783;SDS011;57054;51.978;4.498;2023-04-24T14:09:33;7.93;;;2.67;;
69783;SDS011;57054;51.978;4.498;2023-04-24T14:11:58;10.00;;;2.83;;
69783;SDS011;57054;51.978;4.498;2023-04-24T14:14:25;12.23;;;2.92;;
69783;SDS011;57054;51.978;4.498;2023-04-24T14:16:51;7.90;;;2.65;;
69783;SDS011;57054;51.978;4.498;2023-04-24T14:19:17;15.05;;;2.72;;
69783;SDS011;57054;51.978;4.498;2023-04-24T14:21:42;10.88;;;3.60;;
69783;SDS011;57054;51.978;4.498;2023-04-24T14:24:07;13.88;;;3.38;;
69783;SDS011;57054;51.978;4.498;2023-04-24T14:26:33;8.23;;;3.38;;
69783;SDS011;57054;51.978;4.498;2023-04-24T14:28:58;13.55;;;3.20;;
69783;SDS011;57054;51.978;4.498;2023-04-24T14:31:24;11.80;;;3.33;;
69783;SDS011;57054;51.978;4.498;2023-04-24T14:33:49;16.00;;;3.13;;
69783;SDS011;57054;51.978;4.498;2023-04-24T14:36:15;12.68;;;3.45;;
69783;SDS011;57054;51.978;4.498;2023-04-24T14:38:40;16.70;;;3.05;;
69783;SDS011;57054;51.978;4.498;2023-04-24T14:41:06;14.43;;;3.83;;
69783;SDS011;57054;51.978;4.498;2023-04-24T14:43:34;15.03;;;3.50;;
69783;SDS011;57054;51.978;4.498;2023-04-24T14:46:00;15.32;;;3.65;;
69783;SDS011;57054;51.978;4.498;2023-04-24T14:48:26;15.50;;;3.72;;
69783;SDS011;57054;51.978;4.498;2023-04-24T14:50:51;13.73;;;3.00;;